Main page
METAR-TAF:

METAR-TAF

Airports :

Tehran Imam Khomeini International Airport

Tehran, Iran

latitude: 35-24-58N, longitude: 51-09-08E, elevation: 1007 m

Current weather observation

The report was made 35 minutes ago, at 03:30 UTC
Wind 6 kt from the Northwest
Temperature 1°C
Humidity 93%
Pressure 1022 hPa
Visibility: 3500 m
mist

METAR: OIIE 090330Z 32006KT 3500 BR NSC 01/M00 Q1022

Time: 07:35 (04:05 UTC)

Forecast

The report was made 4 hours and 55 minutes ago, at 23:10 UTC
Forecast valid from 09 at 00 UTC to 10 at 06 UTC
Wind 6 kt from the Northwest
Visibility: 7000 m
Temporary
from 09 at 02 UTC to 09 at 06 UTC
Visibility: 2000 m
mist
Temporary
from 09 at 09 UTC to 09 at 15 UTC
Wind 8 kt from the Southeast

TAF: OIIE 082310Z 0900/1006 31006KT 7000 NSC TEMPO 0902/0906 2000 BR TEMPO 0909/0915 13008KT

Weather observations and forecasts of more than 4000 airports (METAR and TAF reports).

The available stations are represented by yellow and red dots on the map.

Hover mouse over dot to see the name of the station.

Then click to see weather observations and forecasts.

To change the map : click on the green buttons with a black cross to zoom in, on the green button with a dash to zoom out, or on the green arrows for adjacent maps.


METAR-TAF: